Time;durP1;ratioP1;P1;durP2;ratioP2;P2;SDS_P1;SDS_P2;PMS_P1;PMS_P2;Temp;Humidity;BMP_temperature;BMP_pressure;BME280_temperature;BME280_humidity;BME280_pressure;Samples;Min_cycle;Max_cycle;Signal;HPM_P1;HPM_P2
2023/06/28 00:01:03;;;;;;;;;2.67;2.67;;;;;;;;5101626;27;45190;-79
2023/06/28 00:03:28;;;;;;;;;4.00;4.00;;;;;;;;5082638;27;46199;-79
2023/06/28 00:05:53;;;;;;;;;4.00;3.00;;;;;;;;5100887;27;46276;-79
2023/06/28 00:08:18;;;;;;;;;4.00;3.33;;;;;;;;5101033;27;45336;-79
2023/06/28 00:10:44;;;;;;;;;4.00;3.00;;;;;;;;5082722;27;45295;-78
2023/06/28 00:13:09;;;;;;;;;2.00;2.00;;;;;;;;5082113;27;46916;-79
2023/06/28 00:15:34;;;;;;;;;1.00;1.00;;;;;;;;5100718;27;45778;-78
2023/06/28 00:18:02;;;;;;;;;1.00;1.00;;;;;;;;5100987;27;45400;-79
2023/06/28 00:20:27;;;;;;;;;4.00;4.00;;;;;;;;5082853;27;45296;-79
2023/06/28 00:22:52;;;;;;;;;3.33;3.33;;;;;;;;5082254;27;46194;-79
2023/06/28 00:25:18;;;;;;;;;3.00;3.00;;;;;;;;5100698;27;46582;-78
2023/06/28 00:27:43;;;;;;;;;2.00;2.00;;;;;;;;5082679;27;45336;-78
2023/06/28 00:30:08;;;;;;;;;4.00;3.67;;;;;;;;5067638;28;45304;-78
2023/06/28 00:32:33;;;;;;;;;3.00;3.00;;;;;;;;5062527;28;47141;-78
2023/06/28 00:34:58;;;;;;;;;3.00;3.00;;;;;;;;5080816;28;45323;-78
2023/06/28 00:37:25;;;;;;;;;3.33;3.33;;;;;;;;5079951;28;45351;-79
2023/06/28 00:39:50;;;;;;;;;3.67;3.67;;;;;;;;5079555;28;45375;-78
2023/06/28 00:42:16;;;;;;;;;3.00;3.00;;;;;;;;5080823;28;45360;-78
2023/06/28 00:44:41;;;;;;;;;2.67;2.33;;;;;;;;5062110;28;48386;-79
2023/06/28 00:47:07;;;;;;;;;2.67;2.67;;;;;;;;5080566;28;45418;-78
2023/06/28 00:49:37;;;;;;;;;1.00;1.00;;;;;;;;5080331;28;45338;-78
2023/06/28 00:52:03;;;;;;;;;1.33;1.33;;;;;;;;5082651;28;45252;-78
2023/06/28 00:54:29;;;;;;;;;2.00;2.00;;;;;;;;5061448;28;49289;-78
2023/06/28 00:56:54;;;;;;;;;3.00;3.00;;;;;;;;5062797;28;45385;-77
2023/06/28 00:59:20;;;;;;;;;2.33;2.33;;;;;;;;5081419;28;45266;-78
2023/06/28 01:01:47;;;;;;;;;5.33;5.33;;;;;;;;5080459;28;45482;-78
2023/06/28 01:04:13;;;;;;;;;4.67;4.00;;;;;;;;5080475;28;46100;-78
2023/06/28 01:06:39;;;;;;;;;3.67;3.67;;;;;;;;5079727;28;45309;-78
2023/06/28 01:09:07;;;;;;;;;4.00;4.00;;;;;;;;5080039;28;45430;-78
2023/06/28 01:11:33;;;;;;;;;5.00;4.00;;;;;;;;5079525;28;45361;-78
2023/06/28 01:13:58;;;;;;;;;4.67;4.67;;;;;;;;5079590;28;45209;-78
2023/06/28 01:16:24;;;;;;;;;4.00;4.00;;;;;;;;5080602;28;45328;-78
2023/06/28 01:18:49;;;;;;;;;5.00;4.00;;;;;;;;5061643;28;45440;-78
2023/06/28 01:21:16;;;;;;;;;5.33;5.33;;;;;;;;5061274;28;47547;-78
2023/06/28 01:23:41;;;;;;;;;4.33;4.00;;;;;;;;5079869;28;45441;-78
2023/06/28 01:26:09;;;;;;;;;5.67;4.67;;;;;;;;5082276;28;45392;-78
2023/06/28 01:28:35;;;;;;;;;3.00;3.00;;;;;;;;5085850;27;45324;-78
2023/06/28 01:31:01;;;;;;;;;3.67;3.67;;;;;;;;5103565;27;45344;-78
2023/06/28 01:33:26;;;;;;;;;4.00;4.00;;;;;;;;5103229;27;46107;-78
2023/06/28 01:35:51;;;;;;;;;7.00;6.00;;;;;;;;5085086;27;45339;-78
2023/06/28 01:38:18;;;;;;;;;5.67;5.00;;;;;;;;5104682;27;45280;-78
2023/06/28 01:40:43;;;;;;;;;4.00;4.00;;;;;;;;5104088;27;45349;-78
2023/06/28 01:43:09;;;;;;;;;6.00;6.00;;;;;;;;5105032;27;45502;-78
2023/06/28 01:45:34;;;;;;;;;4.00;3.00;;;;;;;;5086898;27;45197;-78
2023/06/28 01:48:00;;;;;;;;;4.67;4.67;;;;;;;;5086161;27;45541;-78
2023/06/28 01:50:26;;;;;;;;;6.00;5.33;;;;;;;;5103557;27;45475;-78
2023/06/28 01:52:51;;;;;;;;;5.00;5.00;;;;;;;;5104002;27;45360;-78
2023/06/28 01:55:16;;;;;;;;;6.00;5.00;;;;;;;;5103264;27;45270;-78
2023/06/28 01:57:41;;;;;;;;;5.00;5.00;;;;;;;;5103635;27;45226;-78
2023/06/28 02:00:08;;;;;;;;;5.00;5.00;;;;;;;;5103069;27;45501;-77
2023/06/28 02:02:34;;;;;;;;;4.00;4.00;;;;;;;;5102917;27;47160;-77
2023/06/28 02:04:59;;;;;;;;;3.67;3.67;;;;;;;;5084812;27;44724;-78
2023/06/28 02:07:24;;;;;;;;;6.00;5.00;;;;;;;;5103052;27;45534;-77
2023/06/28 02:09:49;;;;;;;;;4.67;4.00;;;;;;;;5084399;27;47226;-77
2023/06/28 02:12:14;;;;;;;;;5.00;4.67;;;;;;;;5102767;27;45420;-78
2023/06/28 02:14:40;;;;;;;;;4.00;4.00;;;;;;;;5084765;27;45327;-78
2023/06/28 02:17:05;;;;;;;;;4.33;4.33;;;;;;;;5084593;27;45420;-77
2023/06/28 02:19:33;;;;;;;;;6.00;5.00;;;;;;;;5084408;27;46995;-78
2023/06/28 02:21:58;;;;;;;;;5.00;4.33;;;;;;;;5102678;27;46595;-78
2023/06/28 02:24:25;;;;;;;;;4.00;4.00;;;;;;;;5084680;27;45341;-78
2023/06/28 02:26:50;;;;;;;;;6.00;6.00;;;;;;;;5103328;27;45378;-78
2023/06/28 02:29:15;;;;;;;;;8.00;5.67;;;;;;;;5094322;27;45516;-78
2023/06/28 02:31:40;;;;;;;;;5.33;5.33;;;;;;;;5063745;28;47317;-78
2023/06/28 02:34:05;;;;;;;;;5.67;5.67;;;;;;;;5081864;28;45382;-78
2023/06/28 02:36:31;;;;;;;;;3.67;3.67;;;;;;;;5081675;28;45435;-78
2023/06/28 02:38:56;;;;;;;;;4.00;3.33;;;;;;;;5082221;28;45268;-78
2023/06/28 02:41:22;;;;;;;;;5.00;3.00;;;;;;;;5063712;28;48076;-78
2023/06/28 02:43:47;;;;;;;;;4.33;4.00;;;;;;;;5081378;28;45335;-78
2023/06/28 02:46:12;;;;;;;;;5.33;5.33;;;;;;;;5082084;28;45327;-78
2023/06/28 02:48:37;;;;;;;;;3.33;3.33;;;;;;;;5063327;28;46122;-78
2023/06/28 02:51:02;;;;;;;;;3.67;3.33;;;;;;;;5081812;28;46278;-78
2023/06/28 02:53:27;;;;;;;;;4.00;4.00;;;;;;;;5081891;28;45306;-78
2023/06/28 02:55:53;;;;;;;;;4.67;3.00;;;;;;;;5082042;28;45572;-78
2023/06/28 02:58:18;;;;;;;;;5.00;4.00;;;;;;;;5063434;28;45893;-78
2023/06/28 03:00:46;;;;;;;;;6.00;4.00;;;;;;;;5063455;28;47143;-78
2023/06/28 03:03:13;;;;;;;;;5.33;5.33;;;;;;;;5081501;28;45287;-78
2023/06/28 03:05:39;;;;;;;;;6.00;6.00;;;;;;;;5082747;28;45345;-79
2023/06/28 03:08:04;;;;;;;;;4.33;4.33;;;;;;;;5063811;28;47044;-78
2023/06/28 03:10:30;;;;;;;;;4.67;4.67;;;;;;;;5082007;28;46057;-78
2023/06/28 03:12:55;;;;;;;;;5.67;4.00;;;;;;;;5082572;28;45212;-78
2023/06/28 03:15:20;;;;;;;;;4.00;4.00;;;;;;;;5081939;28;45176;-78
2023/06/28 03:17:46;;;;;;;;;5.00;4.67;;;;;;;;5081604;28;45391;-78
2023/06/28 03:20:11;;;;;;;;;4.00;4.00;;;;;;;;5082113;28;46521;-78
2023/06/28 03:22:36;;;;;;;;;5.00;5.00;;;;;;;;5081633;28;45287;-78
2023/06/28 03:25:02;;;;;;;;;5.00;5.00;;;;;;;;5082165;28;45319;-78
2023/06/28 03:27:27;;;;;;;;;4.00;4.00;;;;;;;;5081606;28;45696;-78
2023/06/28 03:29:52;;;;;;;;;6.33;4.67;;;;;;;;5094547;27;46207;-79
2023/06/28 03:32:17;;;;;;;;;6.00;6.00;;;;;;;;5101528;27;45260;-78
2023/06/28 03:34:42;;;;;;;;;4.00;4.00;;;;;;;;5101954;27;45426;-78
2023/06/28 03:37:08;;;;;;;;;3.67;3.67;;;;;;;;5101907;27;45290;-78
2023/06/28 03:39:34;;;;;;;;;4.00;4.00;;;;;;;;5102425;27;45661;-78
2023/06/28 03:41:59;;;;;;;;;5.00;5.00;;;;;;;;5101415;27;45334;-78
2023/06/28 03:44:24;;;;;;;;;5.00;5.00;;;;;;;;5083032;27;45489;-78
2023/06/28 03:46:49;;;;;;;;;6.33;6.33;;;;;;;;5102789;27;45300;-79
2023/06/28 03:49:14;;;;;;;;;3.33;3.33;;;;;;;;5082103;27;46966;-78
2023/06/28 03:51:40;;;;;;;;;5.00;3.00;;;;;;;;5102107;27;45231;-79
2023/06/28 03:54:06;;;;;;;;;5.00;5.00;;;;;;;;5101791;27;45498;-78
2023/06/28 03:56:31;;;;;;;;;4.00;4.00;;;;;;;;5101221;27;45330;-78
2023/06/28 03:58:56;;;;;;;;;7.00;4.67;;;;;;;;5102011;27;45330;-78
2023/06/28 04:01:21;;;;;;;;;6.00;5.67;;;;;;;;5101646;27;45260;-78
2023/06/28 04:03:47;;;;;;;;;7.00;6.67;;;;;;;;5083264;27;45319;-78
2023/06/28 04:06:12;;;;;;;;;6.00;6.00;;;;;;;;5082824;27;46300;-78
2023/06/28 04:08:37;;;;;;;;;4.33;4.33;;;;;;;;5082704;27;47287;-78
2023/06/28 04:11:02;;;;;;;;;4.00;4.00;;;;;;;;5101773;27;45320;-78
2023/06/28 04:13:28;;;;;;;;;4.33;4.33;;;;;;;;5101214;27;45297;-78
2023/06/28 04:15:54;;;;;;;;;6.33;6.33;;;;;;;;5082166;27;45427;-78
2023/06/28 04:18:19;;;;;;;;;5.67;5.00;;;;;;;;5080201;28;45228;-78
2023/06/28 04:20:44;;;;;;;;;7.33;7.33;;;;;;;;5080493;28;45240;-78
2023/06/28 04:23:09;;;;;;;;;6.00;6.00;;;;;;;;5063057;28;45324;-78
2023/06/28 04:25:34;;;;;;;;;5.00;5.00;;;;;;;;5063407;28;47120;-78
2023/06/28 04:27:59;;;;;;;;;7.33;7.33;;;;;;;;5080319;28;45298;-78
2023/06/28 04:30:25;;;;;;;;;6.00;5.33;;;;;;;;5099393;27;45309;-78
2023/06/28 04:32:50;;;;;;;;;6.00;5.00;;;;;;;;5101916;27;45275;-78
2023/06/28 04:35:17;;;;;;;;;5.33;5.00;;;;;;;;5102590;27;45254;-79
2023/06/28 04:37:43;;;;;;;;;6.00;6.00;;;;;;;;5101872;27;45609;-78
2023/06/28 04:40:09;;;;;;;;;6.00;6.00;;;;;;;;5082421;27;45715;-79
2023/06/28 04:42:34;;;;;;;;;4.67;4.00;;;;;;;;5100532;27;45389;-78
2023/06/28 04:45:00;;;;;;;;;6.00;5.00;;;;;;;;5083297;27;46922;-78
2023/06/28 04:47:27;;;;;;;;;4.67;4.67;;;;;;;;5102119;27;45243;-78
2023/06/28 04:49:53;;;;;;;;;4.00;4.00;;;;;;;;5083104;27;45369;-78
2023/06/28 04:52:19;;;;;;;;;6.00;6.00;;;;;;;;5100310;27;45318;-78
2023/06/28 04:54:48;;;;;;;;;5.00;5.00;;;;;;;;5099969;27;45487;-78
2023/06/28 04:57:13;;;;;;;;;9.00;7.67;;;;;;;;5100567;27;45356;-78
2023/06/28 04:59:39;;;;;;;;;6.00;5.00;;;;;;;;5099867;27;45470;-78
2023/06/28 05:02:05;;;;;;;;;7.67;6.33;;;;;;;;5100408;27;45366;-78
2023/06/28 05:04:32;;;;;;;;;6.67;6.33;;;;;;;;5081944;27;45768;-78
2023/06/28 05:06:57;;;;;;;;;6.00;5.33;;;;;;;;5103295;27;46515;-78
2023/06/28 05:09:22;;;;;;;;;6.00;5.33;;;;;;;;5079986;27;45416;-77
2023/06/28 05:11:48;;;;;;;;;6.67;5.67;;;;;;;;5072139;28;45370;-78
2023/06/28 05:14:13;;;;;;;;;11.00;9.00;;;;;;;;5076090;28;45598;-78
2023/06/28 05:16:38;;;;;;;;;8.00;6.33;;;;;;;;5082966;28;45720;-78
2023/06/28 05:19:03;;;;;;;;;8.00;8.00;;;;;;;;5088057;28;45290;-78
2023/06/28 05:21:28;;;;;;;;;7.00;6.33;;;;;;;;5069608;28;45285;-77
2023/06/28 05:23:53;;;;;;;;;11.33;7.33;;;;;;;;5065388;28;46133;-75
2023/06/28 05:26:19;;;;;;;;;8.67;6.33;;;;;;;;5082177;28;46163;-76
2023/06/28 05:28:44;;;;;;;;;8.00;8.00;;;;;;;;5066423;27;45318;-77
2023/06/28 05:31:09;;;;;;;;;10.00;10.00;;;;;;;;5059159;28;45546;-77
2023/06/28 05:33:34;;;;;;;;;8.33;6.33;;;;;;;;5061044;28;47148;-77
2023/06/28 05:35:59;;;;;;;;;6.00;6.00;;;;;;;;5079301;28;46291;-75
2023/06/28 05:38:25;;;;;;;;;6.00;6.00;;;;;;;;5079400;28;45349;-78
2023/06/28 05:40:54;;;;;;;;;11.33;8.00;;;;;;;;5079796;28;45380;-76
2023/06/28 05:43:21;;;;;;;;;8.33;5.00;;;;;;;;5079134;28;45857;-75
2023/06/28 05:45:46;;;;;;;;;8.00;7.33;;;;;;;;5078983;28;45955;-76
2023/06/28 05:48:11;;;;;;;;;7.00;6.00;;;;;;;;5060915;28;45239;-75
2023/06/28 05:50:37;;;;;;;;;9.00;7.67;;;;;;;;5079466;28;45572;-76
2023/06/28 05:53:02;;;;;;;;;8.50;7.00;;;;;;;;5079300;28;45437;-76
2023/06/28 05:55:27;;;;;;;;;6.67;5.00;;;;;;;;5061151;28;48429;-74
2023/06/28 05:57:52;;;;;;;;;7.00;6.67;;;;;;;;5077472;28;45397;-76
2023/06/28 06:00:19;;;;;;;;;8.33;7.00;;;;;;;;5061719;28;45471;-74
2023/06/28 06:02:44;;;;;;;;;9.67;9.00;;;;;;;;5066889;28;46187;-75
2023/06/28 06:05:13;;;;;;;;;8.33;7.33;;;;;;;;5082569;28;46229;-74
2023/06/28 06:07:39;;;;;;;;;9.33;8.00;;;;;;;;5080400;28;45568;-76
2023/06/28 06:10:05;;;;;;;;;7.67;6.00;;;;;;;;5062040;28;45402;-75
2023/06/28 06:12:30;;;;;;;;;11.33;9.33;;;;;;;;5080126;28;45319;-75
2023/06/28 06:14:57;;;;;;;;;10.33;7.00;;;;;;;;5064179;28;47072;-75
2023/06/28 06:17:22;;;;;;;;;9.67;9.67;;;;;;;;5084168;28;45258;-75
2023/06/28 06:19:47;;;;;;;;;8.67;8.67;;;;;;;;5064385;28;45437;-74
2023/06/28 06:22:12;;;;;;;;;9.00;8.00;;;;;;;;5063684;28;47552;-73
2023/06/28 06:24:38;;;;;;;;;10.00;8.00;;;;;;;;5082144;28;46131;-74
2023/06/28 06:27:03;;;;;;;;;9.00;9.00;;;;;;;;5065883;28;45987;-75
2023/06/28 06:29:29;;;;;;;;;12.00;10.67;;;;;;;;5074649;27;45296;-75
2023/06/28 06:31:54;;;;;;;;;9.33;8.00;;;;;;;;5084188;27;45862;-75
2023/06/28 06:34:19;;;;;;;;;9.33;9.33;;;;;;;;5102640;27;45266;-75
2023/06/28 06:36:45;;;;;;;;;8.67;7.00;;;;;;;;5078124;28;45261;-75
2023/06/28 06:39:10;;;;;;;;;10.67;9.33;;;;;;;;5063151;28;45265;-75
2023/06/28 06:41:35;;;;;;;;;12.67;9.00;;;;;;;;5050084;28;45575;-75
2023/06/28 06:44:00;;;;;;;;;10.00;8.00;;;;;;;;5043400;28;47437;-75
2023/06/28 06:46:26;;;;;;;;;4.00;4.00;;;;;;;;5065928;28;45373;-77
2023/06/28 06:48:51;;;;;;;;;8.00;7.33;;;;;;;;5062720;28;45302;-77
2023/06/28 06:51:16;;;;;;;;;9.33;7.67;;;;;;;;5061529;28;45315;-76
2023/06/28 06:53:41;;;;;;;;;8.00;8.00;;;;;;;;5044467;28;47087;-78
2023/06/28 06:56:07;;;;;;;;;6.33;6.00;;;;;;;;5044981;28;45309;-76
2023/06/28 06:58:33;;;;;;;;;6.33;5.67;;;;;;;;5061791;28;45436;-76
2023/06/28 07:00:58;;;;;;;;;5.33;5.00;;;;;;;;5061806;28;45330;-78
2023/06/28 07:03:24;;;;;;;;;9.33;7.00;;;;;;;;5061613;28;45733;-76
2023/06/28 07:05:52;;;;;;;;;8.33;8.00;;;;;;;;5061137;28;45363;-76
2023/06/28 07:08:17;;;;;;;;;9.00;7.33;;;;;;;;5061611;28;45326;-75
2023/06/28 07:10:42;;;;;;;;;9.33;9.00;;;;;;;;5061622;28;45244;-75
2023/06/28 07:13:09;;;;;;;;;18.33;15.00;;;;;;;;5043152;28;47958;-75
2023/06/28 07:15:34;;;;;;;;;9.33;8.00;;;;;;;;5042829;28;45321;-75
2023/06/28 07:17:59;;;;;;;;;6.00;6.00;;;;;;;;5043252;28;45271;-76
2023/06/28 07:20:24;;;;;;;;;10.33;9.67;;;;;;;;5042633;28;47267;-76
2023/06/28 07:22:49;;;;;;;;;9.00;8.67;;;;;;;;5042574;28;46208;-76
2023/06/28 07:25:15;;;;;;;;;6.33;6.00;;;;;;;;5061110;28;45259;-77
2023/06/28 07:27:40;;;;;;;;;6.00;6.00;;;;;;;;5043313;28;45301;-78
2023/06/28 07:30:09;;;;;;;;;8.33;8.00;;;;;;;;5072977;27;46922;-78
2023/06/28 07:32:41;;;;;;;;;10.67;9.00;;;;;;;;5082077;27;46985;-76
2023/06/28 07:35:09;;;;;;;;;7.67;7.00;;;;;;;;5083060;27;45469;-76
2023/06/28 07:37:35;;;;;;;;;9.33;8.33;;;;;;;;5101661;27;45414;-76
2023/06/28 07:40:00;;;;;;;;;7.67;7.00;;;;;;;;5082938;27;46990;-76
2023/06/28 07:42:26;;;;;;;;;6.33;6.33;;;;;;;;5101195;27;45458;-75
2023/06/28 07:44:52;;;;;;;;;9.00;7.00;;;;;;;;5103258;27;45338;-75
2023/06/28 07:47:17;;;;;;;;;9.00;8.33;;;;;;;;5083334;27;45260;-75
2023/06/28 07:49:42;;;;;;;;;9.00;9.00;;;;;;;;5083042;27;45619;-75
2023/06/28 07:52:09;;;;;;;;;8.00;8.00;;;;;;;;5082517;27;47615;-76
2023/06/28 07:54:34;;;;;;;;;6.33;6.33;;;;;;;;5083010;27;45297;-75
2023/06/28 07:57:00;;;;;;;;;8.00;8.00;;;;;;;;5082917;27;45232;-76
2023/06/28 07:59:26;;;;;;;;;7.00;7.00;;;;;;;;5082702;27;45466;-75
2023/06/28 08:01:51;;;;;;;;;7.00;6.67;;;;;;;;5082260;27;46277;-75
2023/06/28 08:04:17;;;;;;;;;6.67;6.67;;;;;;;;5102419;27;45392;-77
2023/06/28 08:06:43;;;;;;;;;7.67;7.00;;;;;;;;5083483;27;45377;-80
2023/06/28 08:09:08;;;;;;;;;8.00;8.00;;;;;;;;5082884;27;45437;-77
2023/06/28 08:11:34;;;;;;;;;8.67;8.67;;;;;;;;5082486;27;46249;-77
2023/06/28 08:13:59;;;;;;;;;8.33;8.00;;;;;;;;5082612;27;45330;-75
2023/06/28 08:16:27;;;;;;;;;6.67;6.67;;;;;;;;5082598;27;45361;-76
2023/06/28 08:18:53;;;;;;;;;5.33;5.33;;;;;;;;5082188;27;45439;-76
2023/06/28 08:21:21;;;;;;;;;8.33;8.33;;;;;;;;5072550;28;46322;-76
2023/06/28 08:23:46;;;;;;;;;7.00;7.00;;;;;;;;5061127;28;45522;-78
2023/06/28 08:26:11;;;;;;;;;7.00;7.00;;;;;;;;5061951;28;45257;-76
2023/06/28 08:28:37;;;;;;;;;10.67;8.33;;;;;;;;5064682;27;45261;-76
2023/06/28 08:31:02;;;;;;;;;9.33;8.00;;;;;;;;5081998;27;45471;-76
2023/06/28 08:33:28;;;;;;;;;8.00;8.00;;;;;;;;5082010;27;45363;-75
2023/06/28 08:35:56;;;;;;;;;7.33;7.33;;;;;;;;5081107;27;45407;-76
2023/06/28 08:38:21;;;;;;;;;8.33;8.33;;;;;;;;5082130;27;45553;-78
2023/06/28 08:40:46;;;;;;;;;8.00;8.00;;;;;;;;5082164;27;47908;-79
2023/06/28 08:43:16;;;;;;;;;9.00;9.00;;;;;;;;5081745;27;45493;-76
2023/06/28 08:45:42;;;;;;;;;8.00;8.00;;;;;;;;5082300;27;45401;-78
2023/06/28 08:48:08;;;;;;;;;11.33;8.67;;;;;;;;5081609;27;45718;-79
2023/06/28 08:50:34;;;;;;;;;7.33;7.33;;;;;;;;5081728;27;45442;-76
2023/06/28 08:53:02;;;;;;;;;8.00;7.33;;;;;;;;5100416;27;45358;-76
2023/06/28 08:55:28;;;;;;;;;8.67;8.67;;;;;;;;5100398;27;45357;-76
2023/06/28 08:57:54;;;;;;;;;10.00;8.33;;;;;;;;5081855;27;46098;-77
2023/06/28 09:00:22;;;;;;;;;10.33;10.33;;;;;;;;5100158;27;45246;-76
2023/06/28 09:02:49;;;;;;;;;10.00;10.00;;;;;;;;5082194;27;45622;-77
2023/06/28 09:05:14;;;;;;;;;13.67;11.00;;;;;;;;5103259;27;45351;-77
2023/06/28 09:07:40;;;;;;;;;13.33;13.00;;;;;;;;5103904;27;45363;-76
2023/06/28 09:10:09;;;;;;;;;10.67;10.67;;;;;;;;5081893;27;47378;-77
2023/06/28 09:12:35;;;;;;;;;10.67;10.67;;;;;;;;5082773;27;45277;-79
2023/06/28 09:15:02;;;;;;;;;12.33;10.67;;;;;;;;5100954;27;45607;-78
2023/06/28 09:17:27;;;;;;;;;11.00;11.00;;;;;;;;5081653;27;45524;-78
2023/06/28 09:19:52;;;;;;;;;12.00;12.00;;;;;;;;5060030;28;47652;-77
2023/06/28 09:22:17;;;;;;;;;12.00;9.67;;;;;;;;5080872;28;45346;-81
2023/06/28 09:24:43;;;;;;;;;10.67;9.67;;;;;;;;5099809;27;45364;-80
2023/06/28 09:27:08;;;;;;;;;10.00;10.00;;;;;;;;5063246;28;46533;-79
2023/06/28 09:29:34;;;;;;;;;10.67;10.67;;;;;;;;5087740;27;46190;-80
2023/06/28 09:32:00;;;;;;;;;13.00;13.00;;;;;;;;5063463;28;45881;-79
2023/06/28 09:34:28;;;;;;;;;12.33;11.33;;;;;;;;5066275;28;45965;-80
2023/06/28 09:36:54;;;;;;;;;13.67;12.00;;;;;;;;5066304;28;46050;-77
2023/06/28 09:39:22;;;;;;;;;14.67;13.33;;;;;;;;5069358;28;47362;-78
2023/06/28 09:41:48;;;;;;;;;15.00;11.33;;;;;;;;5061268;28;46254;-79
2023/06/28 09:44:13;;;;;;;;;10.33;9.67;;;;;;;;5060732;28;45457;-78
2023/06/28 09:46:45;;;;;;;;;13.00;12.33;;;;;;;;5063198;28;46200;-78
2023/06/28 09:49:20;;;;;;;;;11.33;10.67;;;;;;;;5065016;28;46130;-78
2023/06/28 09:51:54;;;;;;;;;13.00;10.00;;;;;;;;5083038;28;45303;-78
2023/06/28 09:54:19;;;;;;;;;15.33;13.67;;;;;;;;5096799;28;44764;-81
2023/06/28 09:56:44;;;;;;;;;14.00;14.00;;;;;;;;5092349;28;45487;-79
2023/06/28 09:59:12;;;;;;;;;19.33;17.00;;;;;;;;5067834;28;47087;-79
2023/06/28 10:01:42;;;;;;;;;16.00;15.67;;;;;;;;5062010;28;45353;-78
2023/06/28 10:04:08;;;;;;;;;20.33;19.67;;;;;;;;5083167;28;45393;-79
2023/06/28 10:06:35;;;;;;;;;19.33;17.33;;;;;;;;5084342;28;45270;-78
2023/06/28 10:09:01;;;;;;;;;18.67;18.67;;;;;;;;5059186;28;48553;-76
2023/06/28 10:11:29;;;;;;;;;20.00;19.33;;;;;;;;5043669;28;45502;-78
2023/06/28 10:13:54;;;;;;;;;16.33;16.00;;;;;;;;5044622;28;45367;-78
2023/06/28 10:16:23;;;;;;;;;17.33;17.33;;;;;;;;5043598;28;45818;-79
2023/06/28 10:18:49;;;;;;;;;18.33;16.33;;;;;;;;5073477;28;45354;-80
2023/06/28 10:21:14;;;;;;;;;21.67;21.00;;;;;;;;5067823;28;45280;-78
2023/06/28 10:23:40;;;;;;;;;21.00;19.67;;;;;;;;5085182;28;45203;-78
2023/06/28 10:26:06;;;;;;;;;24.00;24.00;;;;;;;;5082951;28;45539;-77
2023/06/28 10:28:35;;;;;;;;;17.67;17.67;;;;;;;;5084521;27;45263;-79
2023/06/28 10:31:03;;;;;;;;;19.67;19.33;;;;;;;;5102384;27;45386;-79
2023/06/28 10:33:31;;;;;;;;;20.00;19.00;;;;;;;;5101012;27;45231;-76
2023/06/28 10:35:57;;;;;;;;;36.67;31.33;;;;;;;;5083594;28;45551;-77
2023/06/28 10:38:23;;;;;;;;;19.33;18.33;;;;;;;;5065596;28;46675;-76
2023/06/28 10:40:51;;;;;;;;;22.33;20.67;;;;;;;;5063832;28;45449;-76
2023/06/28 10:43:23;;;;;;;;;21.33;21.00;;;;;;;;5063290;28;45198;-78
2023/06/28 10:45:48;;;;;;;;;19.00;17.33;;;;;;;;5063432;28;45459;-80
2023/06/28 10:48:17;;;;;;;;;22.33;20.67;;;;;;;;5063318;28;48274;-79
2023/06/28 10:50:43;;;;;;;;;22.67;22.00;;;;;;;;5063144;28;45363;-76
2023/06/28 10:53:18;;;;;;;;;22.33;21.00;;;;;;;;5081596;28;45229;-77
2023/06/28 10:56:16;;;;;;;;;20.00;20.00;;;;;;;;5081668;28;45241;-75
2023/06/28 10:58:42;;;;;;;;;21.00;20.33;;;;;;;;5008007;28;47774;-75
2023/06/28 11:01:09;;;;;;;;;21.00;21.00;;;;;;;;5062839;28;45639;-75
2023/06/28 11:03:44;;;;;;;;;20.00;19.33;;;;;;;;5063068;28;45409;-74
2023/06/28 11:06:13;;;;;;;;;22.00;20.33;;;;;;;;5063066;28;45739;-75
2023/06/28 11:08:42;;;;;;;;;19.67;19.67;;;;;;;;5081461;28;46617;-77
2023/06/28 11:11:29;;;;;;;;;24.67;22.33;;;;;;;;5081451;28;45342;-76
2023/06/28 11:13:54;;;;;;;;;21.33;20.00;;;;;;;;5081574;28;45360;-76
2023/06/28 11:16:22;;;;;;;;;23.00;20.33;;;;;;;;5060457;27;45506;-75
2023/06/28 11:18:47;;;;;;;;;22.67;20.67;;;;;;;;5075408;28;45370;-76
2023/06/28 11:21:17;;;;;;;;;21.00;20.33;;;;;;;;5079515;27;45331;-80
2023/06/28 11:23:43;;;;;;;;;20.33;20.33;;;;;;;;5080218;28;45379;-78
2023/06/28 11:26:16;;;;;;;;;20.00;20.00;;;;;;;;5060444;27;45410;-78
2023/06/28 11:28:54;;;;;;;;;24.00;21.50;;;;;;;;5066612;27;46275;-79
2023/06/28 11:31:42;;;;;;;;;19.67;19.67;;;;;;;;5083102;27;45673;-77
2023/06/28 11:34:10;;;;;;;;;19.67;18.67;;;;;;;;5101652;27;45267;-76
2023/06/28 11:36:36;;;;;;;;;24.67;22.33;;;;;;;;5083329;27;45521;-78
2023/06/28 11:39:01;;;;;;;;;26.00;23.00;;;;;;;;5101217;27;46036;-75
2023/06/28 11:41:32;;;;;;;;;24.00;21.33;;;;;;;;5081539;27;46464;-76
2023/06/28 11:44:02;;;;;;;;;24.00;22.33;;;;;;;;5101146;27;45328;-77
2023/06/28 11:46:29;;;;;;;;;24.00;23.33;;;;;;;;5098680;27;45438;-79
2023/06/28 11:48:57;;;;;;;;;21.67;20.67;;;;;;;;5072651;27;48396;-76
2023/06/28 11:51:22;;;;;;;;;22.67;21.67;;;;;;;;5062368;28;45838;-77
2023/06/28 11:53:51;;;;;;;;;23.67;22.33;;;;;;;;5091820;27;45294;-76
2023/06/28 11:56:16;;;;;;;;;21.00;20.67;;;;;;;;5100866;27;45628;-76
2023/06/28 11:58:41;;;;;;;;;21.33;20.67;;;;;;;;5103219;27;45272;-76
2023/06/28 12:01:18;;;;;;;;;24.33;24.33;;;;;;;;5090133;27;45362;-78
2023/06/28 12:03:43;;;;;;;;;18.67;18.67;;;;;;;;5080269;27;45439;-78
2023/06/28 12:06:10;;;;;;;;;19.67;19.67;;;;;;;;5075207;27;45369;-77
2023/06/28 12:08:36;;;;;;;;;21.33;20.67;;;;;;;;5066536;28;47536;-75
2023/06/28 12:11:07;;;;;;;;;20.33;20.00;;;;;;;;5081511;27;45359;-77
2023/06/28 12:13:33;;;;;;;;;19.00;19.00;;;;;;;;5062793;28;45231;-75
2023/06/28 12:16:09;;;;;;;;;20.33;20.33;;;;;;;;5080997;27;45345;-76
2023/06/28 12:18:53;;;;;;;;;22.00;20.33;;;;;;;;5080537;27;46331;-76
2023/06/28 12:21:19;;;;;;;;;17.67;17.00;;;;;;;;5079944;27;45252;-76
2023/06/28 12:23:44;;;;;;;;;23.00;22.67;;;;;;;;5061621;28;45402;-76
2023/06/28 12:26:10;;;;;;;;;22.00;20.67;;;;;;;;5088280;27;45377;-75
2023/06/28 12:28:41;;;;;;;;;19.33;19.00;;;;;;;;5094112;27;46661;-75
2023/06/28 12:31:09;;;;;;;;;26.00;23.33;;;;;;;;5081363;27;45411;-76
2023/06/28 12:33:34;;;;;;;;;22.67;20.67;;;;;;;;5090423;27;45505;-76
2023/06/28 12:36:00;;;;;;;;;24.33;23.33;;;;;;;;5079493;27;45395;-76
2023/06/28 12:38:25;;;;;;;;;23.33;22.67;;;;;;;;5078844;27;45546;-74
2023/06/28 12:40:50;;;;;;;;;22.67;22.67;;;;;;;;5061247;28;45423;-78
2023/06/28 12:43:21;;;;;;;;;25.00;23.00;;;;;;;;5079912;27;45536;-76
2023/06/28 12:45:50;;;;;;;;;21.00;20.67;;;;;;;;5078113;27;45350;-75
2023/06/28 12:48:18;;;;;;;;;21.33;20.67;;;;;;;;5084721;27;45516;-73
2023/06/28 12:50:44;;;;;;;;;22.00;21.33;;;;;;;;5060891;28;45657;-72
2023/06/28 12:53:09;;;;;;;;;25.00;23.67;;;;;;;;5061576;27;45451;-73
2023/06/28 12:55:37;;;;;;;;;23.00;22.00;;;;;;;;5079445;27;45241;-74
2023/06/28 12:58:02;;;;;;;;;27.33;25.67;;;;;;;;5062555;27;45502;-73
2023/06/28 13:00:27;;;;;;;;;26.33;23.67;;;;;;;;5083656;27;45236;-74
2023/06/28 13:02:53;;;;;;;;;24.33;24.33;;;;;;;;5092264;27;45384;-75
2023/06/28 13:05:19;;;;;;;;;25.00;24.00;;;;;;;;5043607;27;46125;-75
2023/06/28 13:07:45;;;;;;;;;24.33;24.00;;;;;;;;5073476;28;45327;-74
2023/06/28 13:10:10;;;;;;;;;22.33;21.67;;;;;;;;5058158;27;45385;-77
2023/06/28 13:12:35;;;;;;;;;22.33;22.33;;;;;;;;5061695;28;45496;-77
2023/06/28 13:15:01;;;;;;;;;26.33;25.67;;;;;;;;5061724;27;46880;-79
2023/06/28 13:17:26;;;;;;;;;23.67;23.67;;;;;;;;5072479;28;45338;-78
2023/06/28 13:19:51;;;;;;;;;27.00;23.67;;;;;;;;5078021;28;45585;-78
2023/06/28 13:22:16;;;;;;;;;22.33;21.67;;;;;;;;5100491;27;45332;-78
2023/06/28 13:24:41;;;;;;;;;23.67;23.67;;;;;;;;5085736;27;45561;-78
2023/06/28 13:27:07;;;;;;;;;25.00;23.33;;;;;;;;5103475;27;45277;-78
2023/06/28 13:29:32;;;;;;;;;25.00;25.00;;;;;;;;5094180;27;45242;-78
2023/06/28 13:31:57;;;;;;;;;22.33;21.67;;;;;;;;5103612;27;45290;-77
2023/06/28 13:34:22;;;;;;;;;23.67;23.00;;;;;;;;5103855;27;45221;-78
2023/06/28 13:36:48;;;;;;;;;25.00;24.67;;;;;;;;5103163;27;45284;-78
2023/06/28 13:39:13;;;;;;;;;24.67;23.00;;;;;;;;5084618;27;45299;-78
2023/06/28 13:41:44;;;;;;;;;24.33;23.33;;;;;;;;5071970;28;45382;-76
2023/06/28 13:44:09;;;;;;;;;25.00;24.33;;;;;;;;5064209;28;47007;-77
2023/06/28 13:46:35;;;;;;;;;22.33;22.00;;;;;;;;5094183;27;45283;-77
2023/06/28 13:49:00;;;;;;;;;27.33;25.67;;;;;;;;5104836;27;45377;-75
2023/06/28 13:51:25;;;;;;;;;24.00;23.33;;;;;;;;5102224;27;45342;-77
2023/06/28 13:53:50;;;;;;;;;28.00;25.33;;;;;;;;5103329;27;45357;-78
2023/06/28 13:56:16;;;;;;;;;23.00;21.67;;;;;;;;5102915;27;46094;-76
2023/06/28 13:58:41;;;;;;;;;21.00;20.67;;;;;;;;5103107;27;45395;-75
2023/06/28 14:01:09;;;;;;;;;32.33;28.33;;;;;;;;5102785;27;45444;-75
2023/06/28 14:03:34;;;;;;;;;24.00;24.00;;;;;;;;5103228;27;45305;-78
2023/06/28 14:05:59;;;;;;;;;26.67;25.00;;;;;;;;5084290;27;47410;-77
2023/06/28 14:08:25;;;;;;;;;25.67;25.33;;;;;;;;5103041;27;45298;-77
2023/06/28 14:10:50;;;;;;;;;30.67;27.00;;;;;;;;5101405;27;45301;-77
2023/06/28 14:13:15;;;;;;;;;25.00;23.33;;;;;;;;5101737;27;45433;-77
2023/06/28 14:15:41;;;;;;;;;26.67;26.00;;;;;;;;5102487;27;45365;-76
2023/06/28 14:18:06;;;;;;;;;27.67;26.67;;;;;;;;5102417;27;45379;-76
2023/06/28 14:20:31;;;;;;;;;25.33;25.33;;;;;;;;5101090;27;45471;-74
2023/06/28 14:22:57;;;;;;;;;25.67;25.33;;;;;;;;5097339;27;45292;-77
2023/06/28 14:25:23;;;;;;;;;28.00;26.33;;;;;;;;5081486;28;46185;-76
2023/06/28 14:27:48;;;;;;;;;26.33;26.00;;;;;;;;5081986;27;45429;-78